createdAt,value
2022-08-05T00:01:25.216Z,96923.91
2022-08-05T00:04:29.827Z,96936.84
2022-08-05T00:08:00.914Z,96941.28
2022-08-05T00:10:53.782Z,96949.59
2022-08-05T00:13:55.316Z,96954.84
2022-08-05T00:16:57.501Z,96946.63
2022-08-05T00:20:02.377Z,96935.16
2022-08-05T00:23:12.559Z,96929.66
2022-08-05T00:26:16.440Z,96925.59
2022-08-05T00:32:19.798Z,96928.19
2022-08-05T00:35:21.314Z,96936.38
2022-08-05T00:38:35.110Z,96931.41
2022-08-05T00:41:46.806Z,96940.97
2022-08-05T00:44:54.969Z,96942.75
2022-08-05T00:48:05.142Z,96950.66
2022-08-05T00:51:49.925Z,96940.25
2022-08-05T00:54:30.175Z,96945.84
2022-08-05T00:57:38.428Z,96949.34
2022-08-05T01:00:53.457Z,96946.03
2022-08-05T01:03:55.476Z,96950.88
2022-08-05T01:06:57.214Z,96957.53
2022-08-05T01:10:01.637Z,96970.69
2022-08-05T01:13:13.220Z,96981.91
2022-08-05T01:16:32.762Z,96992.47
2022-08-05T01:20:02.690Z,97002.28
2022-08-05T01:23:53.058Z,97011.47
2022-08-05T01:27:19.174Z,97019.81
2022-08-05T01:30:34.470Z,97009.63
2022-08-05T01:33:49.298Z,97007.56
2022-08-05T01:37:04.003Z,97004.00
2022-08-05T01:40:08.414Z,96998.47
2022-08-05T01:43:22.449Z,97011.16
2022-08-05T01:46:42.646Z,97011.50
2022-08-05T01:50:02.094Z,97019.38
2022-08-05T01:53:08.365Z,97036.56
2022-08-05T01:58:13.082Z,97035.09
2022-08-05T01:59:40.387Z,97042.38
2022-08-05T02:02:54.427Z,97043.09
2022-08-05T02:05:59.925Z,97040.59
2022-08-05T02:09:03.504Z,97040.97
2022-08-05T02:12:12.422Z,97030.75
2022-08-05T02:15:22.122Z,97033.47
2022-08-05T02:18:34.850Z,97044.38
2022-08-05T02:21:46.818Z,97047.06
2022-08-05T02:24:55.743Z,97048.56
2022-08-05T02:28:00.494Z,97042.13
2022-08-05T02:31:07.433Z,97048.44
2022-08-05T02:34:13.649Z,97043.09
2022-08-05T02:37:16.249Z,97058.16
2022-08-05T02:40:22.898Z,97058.59
2022-08-05T02:43:27.430Z,97048.41
2022-08-05T02:46:30.905Z,97060.53
2022-08-05T02:49:41.841Z,97066.13
2022-08-05T02:52:46.797Z,97061.56
2022-08-05T02:55:54.454Z,97067.75
2022-08-05T02:58:59.886Z,97070.28
2022-08-05T03:02:02.758Z,97074.84
2022-08-05T03:05:07.502Z,97065.88
2022-08-05T03:08:11.134Z,97059.25
2022-08-05T03:11:54.998Z,97073.63
2022-08-05T03:14:48.172Z,97074.25
2022-08-05T03:17:50.423Z,97074.06
2022-08-05T03:20:58.248Z,97069.06
2022-08-05T03:24:00.687Z,97076.72
2022-08-05T03:27:06.771Z,97073.31
2022-08-05T03:30:09.279Z,97081.94
2022-08-05T03:33:11.295Z,97086.34
2022-08-05T03:36:14.211Z,97091.78
2022-08-05T03:39:20.173Z,97088.25
2022-08-05T03:42:32.825Z,97095.34
2022-08-05T03:45:58.170Z,97093.44
2022-08-05T03:49:01.789Z,97089.19
2022-08-05T03:52:50.200Z,97093.53
2022-08-05T03:56:09.995Z,97091.06
2022-08-05T03:59:01.920Z,97092.91
2022-08-05T04:02:04.569Z,97087.34
2022-08-05T04:05:10.189Z,97081.53
2022-08-05T04:08:14.696Z,97089.84
2022-08-05T04:11:47.265Z,97098.41
2022-08-05T04:14:52.487Z,97109.50
2022-08-05T04:17:56.610Z,97111.13
2022-08-05T04:20:59.157Z,97120.16
2022-08-05T04:24:06.187Z,97117.44
2022-08-05T04:27:08.879Z,97111.59
2022-08-05T04:30:10.726Z,97110.25
2022-08-05T04:33:13.343Z,97101.88
2022-08-05T04:36:44.707Z,97102.28
2022-08-05T04:39:37.244Z,97107.00
2022-08-05T04:42:38.808Z,97128.63
2022-08-05T04:45:48.987Z,97145.00
2022-08-05T04:48:58.653Z,97143.84
2022-08-05T04:52:00.793Z,97151.06
2022-08-05T04:55:13.963Z,97158.72
2022-08-05T04:58:20.171Z,97167.78
2022-08-05T05:02:05.445Z,97178.34
2022-08-05T05:04:48.074Z,97202.03
2022-08-05T05:07:56.379Z,97223.72
2022-08-05T05:11:02.507Z,97234.09
2022-08-05T05:14:04.311Z,97239.22
2022-08-05T05:17:10.172Z,97249.25
2022-08-05T05:20:13.271Z,97257.22
2022-08-05T05:23:19.998Z,97252.28
2022-08-05T05:26:28.611Z,97260.19
2022-08-05T05:30:04.624Z,97255.16
2022-08-05T05:32:56.260Z,97272.69
2022-08-05T05:35:58.028Z,97281.03
2022-08-05T05:39:03.542Z,97281.88
2022-08-05T05:42:06.023Z,97279.75
2022-08-05T05:45:09.185Z,97289.16
2022-08-05T05:48:10.740Z,97296.03
2022-08-05T05:51:22.904Z,97308.38
2022-08-05T05:54:49.763Z,97315.88
2022-08-05T05:57:52.690Z,97325.22
2022-08-05T06:00:54.957Z,97326.28
2022-08-05T06:04:02.071Z,97330.81
2022-08-05T06:07:05.521Z,97323.25
2022-08-05T06:10:10.460Z,97312.78
2022-08-05T06:13:12.750Z,97320.88
2022-08-05T06:16:30.167Z,97303.41
2022-08-05T06:19:34.882Z,97311.97
2022-08-05T06:22:37.130Z,97321.56
2022-08-05T06:26:12.293Z,97328.28
2022-08-05T06:29:25.551Z,97329.50
2022-08-05T06:32:28.890Z,97329.25
2022-08-05T06:36:06.906Z,97322.38
2022-08-05T06:38:54.605Z,97323.28
2022-08-05T06:42:04.007Z,97317.19
2022-08-05T06:45:08.899Z,97306.22
2022-08-05T06:48:52.475Z,97301.34
2022-08-05T06:51:34.261Z,97310.28
2022-08-05T06:54:37.543Z,97312.50
2022-08-05T06:58:03.982Z,97309.44
2022-08-05T07:01:02.334Z,97310.56
2022-08-05T07:04:04.043Z,97307.66
2022-08-05T07:07:07.819Z,97313.44
2022-08-05T07:10:10.548Z,97315.56
2022-08-05T07:13:58.488Z,97310.97
2022-08-05T07:17:58.200Z,97314.88
2022-08-05T07:20:39.091Z,97315.09
2022-08-05T07:23:40.731Z,97314.97
2022-08-05T07:26:52.461Z,97324.41
2022-08-05T07:30:27.678Z,97337.53
2022-08-05T07:33:17.056Z,97334.25
2022-08-05T07:36:20.689Z,97334.31
2022-08-05T07:40:03.706Z,97332.00
2022-08-05T07:42:45.052Z,97344.03
2022-08-05T07:45:57.317Z,97338.28
2022-08-05T07:49:05.436Z,97344.13
2022-08-05T07:52:07.976Z,97357.78
2022-08-05T07:55:15.796Z,97342.75
2022-08-05T07:58:54.976Z,97350.84
2022-08-05T08:01:57.650Z,97341.13
2022-08-05T08:05:01.290Z,97348.31
2022-08-05T08:08:02.915Z,97345.13
2022-08-05T08:11:04.591Z,97346.25
2022-08-05T08:14:10.657Z,97349.28
2022-08-05T08:17:21.465Z,97350.19
2022-08-05T08:20:45.293Z,97349.06
2022-08-05T08:24:02.309Z,97345.41
2022-08-05T08:27:06.907Z,97343.25
2022-08-05T08:30:29.840Z,97347.22
2022-08-05T08:33:37.610Z,97355.47
2022-08-05T08:36:48.889Z,97356.41
2022-08-05T08:39:54.153Z,97358.59
2022-08-05T08:42:56.815Z,97351.81
2022-08-05T08:46:01.476Z,97342.22
2022-08-05T08:50:22.509Z,97337.69
2022-08-05T08:52:32.192Z,97332.81
2022-08-05T08:56:03.175Z,97328.88
2022-08-05T08:58:59.246Z,97325.44
2022-08-05T09:02:08.432Z,97323.78
2022-08-05T09:05:17.605Z,97321.41
2022-08-05T09:08:27.496Z,97309.75
2022-08-05T09:11:52.204Z,97308.00
2022-08-05T09:14:59.474Z,97298.25
2022-08-05T09:18:09.242Z,97311.41
2022-08-05T09:21:11.804Z,97299.78
2022-08-05T09:24:22.722Z,97300.25
2022-08-05T09:28:04.504Z,97300.16
2022-08-05T09:31:43.824Z,97299.19
2022-08-05T09:34:26.254Z,97287.06
2022-08-05T09:38:12.655Z,97288.03
2022-08-05T09:40:52.240Z,97284.69
2022-08-05T09:43:55.118Z,97282.75
2022-08-05T09:47:10.366Z,97281.63
2022-08-05T09:50:17.873Z,97279.06
2022-08-05T09:53:22.869Z,97280.50
2022-08-05T09:56:33.381Z,97271.31
2022-08-05T09:59:37.320Z,97273.81
2022-08-05T10:02:48.512Z,97272.03
2022-08-05T10:06:15.800Z,97279.56
2022-08-05T10:09:27.255Z,97275.88
2022-08-05T10:12:33.810Z,97275.41
2022-08-05T10:15:39.430Z,97278.53
2022-08-05T10:18:43.035Z,97276.59
2022-08-05T10:21:50.350Z,97279.06
2022-08-05T10:24:52.406Z,97281.81
2022-08-05T10:28:12.960Z,97275.50
2022-08-05T10:32:50.604Z,97275.25
2022-08-05T10:34:42.428Z,97262.91
2022-08-05T10:37:45.264Z,97276.47
2022-08-05T10:40:57.786Z,97267.81
2022-08-05T10:44:05.127Z,97267.69
2022-08-05T10:47:26.897Z,97262.47
2022-08-05T10:50:36.909Z,97263.94
2022-08-05T10:53:45.472Z,97254.53
2022-08-05T10:56:57.626Z,97261.84
2022-08-05T11:00:17.893Z,97262.81
2022-08-05T11:03:24.677Z,97265.25
2022-08-05T11:06:30.757Z,97260.19
2022-08-05T11:10:03.996Z,97260.69
2022-08-05T11:13:57.736Z,97263.25
2022-08-05T11:18:00.250Z,97270.97
2022-08-05T11:20:53.765Z,97273.38
2022-08-05T11:24:05.571Z,97281.47
2022-08-05T11:27:51.491Z,97274.81
2022-08-05T11:30:58.410Z,97269.06
2022-08-05T11:34:08.163Z,97268.50
2022-08-05T11:38:37.399Z,97266.50
2022-08-05T11:41:01.724Z,97271.16
2022-08-05T11:44:40.494Z,97271.09
2022-08-05T11:47:49.396Z,97277.44
2022-08-05T11:50:53.470Z,97272.47
2022-08-05T11:53:56.216Z,97268.78
2022-08-05T11:56:58.020Z,97266.50
2022-08-05T12:00:03.515Z,97261.38
2022-08-05T12:03:23.765Z,97259.09
2022-08-05T12:06:35.609Z,97258.31
2022-08-05T12:09:53.209Z,97258.41
2022-08-05T12:13:03.071Z,97247.03
2022-08-05T12:16:25.456Z,97247.25
2022-08-05T12:20:25.368Z,97243.94
2022-08-05T12:22:51.869Z,97245.13
2022-08-05T12:25:56.496Z,97236.56
2022-08-05T12:28:58.570Z,97239.31
2022-08-05T12:32:02.175Z,97234.59
2022-08-05T12:35:05.287Z,97227.63
2022-08-05T12:38:10.262Z,97228.94
2022-08-05T12:41:14.605Z,97229.84
2022-08-05T12:44:32.585Z,97228.47
2022-08-05T12:47:36.464Z,97225.09
2022-08-05T12:50:38.223Z,97224.78
2022-08-05T12:53:44.633Z,97206.84
2022-08-05T12:56:58.516Z,97210.28
2022-08-05T13:01:58.500Z,97207.84
2022-08-05T13:03:24.258Z,97210.03
2022-08-05T13:06:33.841Z,97206.41
2022-08-05T13:09:35.432Z,97198.69
2022-08-05T13:12:42.712Z,97186.78
2022-08-05T13:15:54.307Z,97191.53
2022-08-05T13:18:59.283Z,97191.00
2022-08-05T13:22:00.775Z,97189.84
2022-08-05T13:25:18.751Z,97182.88
2022-08-05T13:28:21.806Z,97185.25
2022-08-05T13:31:34.053Z,97187.13
2022-08-05T13:34:45.229Z,97178.34
2022-08-05T13:37:48.141Z,97170.91
2022-08-05T13:40:57.477Z,97173.56
2022-08-05T13:43:59.241Z,97162.84
2022-08-05T13:47:04.607Z,97151.31
2022-08-05T13:50:14.788Z,97151.63
2022-08-05T13:53:19.260Z,97139.38
2022-08-05T13:56:21.149Z,97136.16
2022-08-05T13:59:24.050Z,97139.47
2022-08-05T14:02:29.762Z,97130.38
2022-08-05T14:06:24.468Z,97141.97
2022-08-05T14:08:54.204Z,97133.91
2022-08-05T14:12:04.200Z,97123.41
2022-08-05T14:16:06.037Z,97138.19
2022-08-05T14:18:39.543Z,97134.25
2022-08-05T14:22:08.775Z,97130.91
2022-08-05T14:25:06.486Z,97133.78
2022-08-05T14:28:26.834Z,97132.09
2022-08-05T14:32:02.505Z,97140.91
2022-08-05T14:34:50.618Z,97138.03
2022-08-05T14:37:55.458Z,97142.81
2022-08-05T14:40:57.388Z,97133.28
2022-08-05T14:44:09.642Z,97136.16
2022-08-05T14:47:58.511Z,97137.25
2022-08-05T14:50:42.611Z,97141.25
2022-08-05T14:53:44.930Z,97129.84
2022-08-05T14:56:47.220Z,97137.75
2022-08-05T14:59:48.838Z,97153.50
2022-08-05T15:02:50.757Z,97162.53
2022-08-05T15:06:12.769Z,97165.91
2022-08-05T15:09:14.115Z,97174.00
2022-08-05T15:12:17.314Z,97166.72
2022-08-05T15:15:54.993Z,97153.84
2022-08-05T15:18:40.506Z,97145.06
2022-08-05T15:21:42.868Z,97139.81
2022-08-05T15:24:44.709Z,97152.16
2022-08-05T15:27:52.274Z,97171.41
2022-08-05T15:30:54.121Z,97192.34
2022-08-05T15:34:18.316Z,97214.38
2022-08-05T15:37:27.377Z,97220.16
2022-08-05T15:41:03.400Z,97203.84
2022-08-05T15:44:00.637Z,97207.25
2022-08-05T15:47:03.542Z,97217.28
2022-08-05T15:50:07.208Z,97202.03
2022-08-05T15:53:09.245Z,97205.13
2022-08-05T15:56:14.008Z,97189.84
2022-08-05T15:59:22.255Z,97191.84
2022-08-05T16:02:25.182Z,97197.53
2022-08-05T16:05:28.149Z,97205.69
2022-08-05T16:08:30.347Z,97203.69
2022-08-05T16:11:43.021Z,97205.06
2022-08-05T16:14:45.311Z,97195.94
2022-08-05T16:17:57.812Z,97197.13
2022-08-05T16:21:04.563Z,97212.09
2022-08-05T16:24:07.701Z,97213.16
2022-08-05T16:27:32.120Z,97235.59
2022-08-05T16:30:50.375Z,97245.94
2022-08-05T16:33:52.496Z,97243.81
2022-08-05T16:36:55.213Z,97246.44
2022-08-05T16:40:04.674Z,97250.03
2022-08-05T16:43:06.940Z,97254.44
2022-08-05T16:46:23.628Z,97254.59
2022-08-05T16:49:26.439Z,97264.78
2022-08-05T16:52:33.443Z,97270.28
2022-08-05T16:55:46.906Z,97264.59
2022-08-05T16:58:49.474Z,97265.81
2022-08-05T17:01:52.866Z,97260.34
2022-08-05T17:04:57.163Z,97272.56
2022-08-05T17:07:58.711Z,97268.88
2022-08-05T17:11:00.295Z,97267.75
2022-08-05T17:14:05.744Z,97275.09
2022-08-05T17:17:09.445Z,97258.94
2022-08-05T17:20:16.488Z,97266.44
2022-08-05T17:24:03.783Z,97274.28
2022-08-05T17:26:40.948Z,97289.59
2022-08-05T17:29:42.606Z,97299.31
2022-08-05T17:32:44.221Z,97300.84
2022-08-05T17:36:07.443Z,97307.19
2022-08-05T17:39:24.335Z,97313.41
2022-08-05T17:42:32.872Z,97311.75
2022-08-05T17:45:38.575Z,97307.31
2022-08-05T17:48:40.356Z,97312.81
2022-08-05T17:51:46.459Z,97321.25
2022-08-05T17:54:52.091Z,97320.34
2022-08-05T17:57:54.091Z,97322.97
2022-08-05T18:00:55.591Z,97331.84
2022-08-05T18:04:04.673Z,97340.84
2022-08-05T18:07:07.461Z,97349.16
2022-08-05T18:10:21.136Z,97356.50
2022-08-05T18:13:23.018Z,97364.16
2022-08-05T18:16:27.339Z,97369.81
2022-08-05T18:19:28.928Z,97375.16
2022-08-05T18:22:36.408Z,97377.34
2022-08-05T18:25:57.645Z,97383.31
2022-08-05T18:29:01.032Z,97391.91
2022-08-05T18:32:02.971Z,97394.25
2022-08-05T18:35:05.307Z,97407.75
2022-08-05T18:38:07.925Z,97419.63
2022-08-05T18:41:55.076Z,97426.53
2022-08-05T18:44:34.881Z,97433.28
2022-08-05T18:47:37.953Z,97451.50
2022-08-05T18:51:01.730Z,97453.63
2022-08-05T18:54:19.934Z,97459.91
2022-08-05T18:57:23.915Z,97462.41
2022-08-05T19:00:29.235Z,97463.41
2022-08-05T19:03:52.688Z,97463.25
2022-08-05T19:06:53.557Z,97464.28
2022-08-05T19:09:55.930Z,97459.66
2022-08-05T19:12:57.797Z,97466.19
2022-08-05T19:16:03.448Z,97488.75
2022-08-05T19:19:05.415Z,97487.88
2022-08-05T19:22:06.947Z,97493.88
2022-08-05T19:25:10.603Z,97502.44
2022-08-05T19:28:23.202Z,97492.63
2022-08-05T19:31:26.165Z,97493.81
2022-08-05T19:34:35.272Z,97506.38
2022-08-05T19:38:04.755Z,97514.09
2022-08-05T19:40:58.597Z,97525.53
2022-08-05T19:44:13.455Z,97525.72
2022-08-05T19:47:16.569Z,97528.31
2022-08-05T19:50:19.910Z,97529.25
2022-08-05T19:54:04.383Z,97533.31
2022-08-05T19:56:43.245Z,97553.00
2022-08-05T20:00:01.193Z,97555.25
2022-08-05T20:03:14.011Z,97536.16
2022-08-05T20:06:28.848Z,97549.25
2022-08-05T20:09:30.839Z,97554.38
2022-08-05T20:12:52.333Z,97558.34
2022-08-05T20:15:56.823Z,97557.34
2022-08-05T20:18:59.115Z,97555.06
2022-08-05T20:22:03.967Z,97576.75
2022-08-05T20:25:07.095Z,97570.22
2022-08-05T20:28:13.749Z,97585.13
2022-08-05T20:31:21.638Z,97592.72
2022-08-05T20:34:24.645Z,97577.19
2022-08-05T20:38:06.053Z,97573.84
2022-08-05T20:40:47.858Z,97574.28
2022-08-05T20:43:59.079Z,97588.75
2022-08-05T20:47:07.400Z,97602.47
2022-08-05T20:50:11.436Z,97615.09
2022-08-05T20:53:16.149Z,97618.44
2022-08-05T20:56:42.133Z,97639.44
2022-08-05T20:59:46.253Z,97640.47
2022-08-05T21:03:07.964Z,97647.63
2022-08-05T21:06:28.449Z,97657.81
2022-08-05T21:09:31.101Z,97670.22
2022-08-05T21:12:36.169Z,97685.75
2022-08-05T21:15:37.695Z,97693.56
2022-08-05T21:18:39.228Z,97700.63
2022-08-05T21:21:50.551Z,97697.13
2022-08-05T21:24:54.260Z,97677.69
2022-08-05T21:27:56.396Z,97697.25
2022-08-05T21:30:58.827Z,97707.34
2022-08-05T21:34:00.296Z,97691.69
2022-08-05T21:37:04.677Z,97691.28
2022-08-05T21:40:07.146Z,97702.91
2022-08-05T21:43:17.755Z,97707.19
2022-08-05T21:46:27.503Z,97703.91
2022-08-05T21:49:48.435Z,97710.78
2022-08-05T21:52:58.943Z,97725.75
2022-08-05T21:56:16.320Z,97727.22
2022-08-05T21:59:24.137Z,97719.38
2022-08-05T22:02:27.908Z,97721.41
2022-08-05T22:05:29.386Z,97728.66
2022-08-05T22:08:52.460Z,97735.28
2022-08-05T22:11:54.615Z,97736.81
2022-08-05T22:14:57.040Z,97746.97
2022-08-05T22:18:00.225Z,97739.19
2022-08-05T22:21:04.079Z,97742.25
2022-08-05T22:24:40.284Z,97749.69
2022-08-05T22:28:09.109Z,97760.47
2022-08-05T22:31:09.373Z,97774.03
2022-08-05T22:34:25.594Z,97767.41
2022-08-05T22:37:58.175Z,97766.56
2022-08-05T22:40:54.843Z,97768.91
2022-08-05T22:43:59.185Z,97777.94
2022-08-05T22:47:00.844Z,97775.00
2022-08-05T22:50:23.048Z,97785.44
2022-08-05T22:53:35.539Z,97791.28
2022-08-05T22:56:39.974Z,97790.31
2022-08-05T22:59:45.057Z,97793.09
2022-08-05T23:02:53.127Z,97806.69
2022-08-05T23:05:55.714Z,97806.38
2022-08-05T23:08:57.266Z,97815.19
2022-08-05T23:12:20.190Z,97807.22
2022-08-05T23:15:29.483Z,97805.03
2022-08-05T23:18:36.263Z,97812.84
2022-08-05T23:21:42.935Z,97815.41
2022-08-05T23:24:51.301Z,97809.69
2022-08-05T23:28:00.281Z,97816.72
2022-08-05T23:31:16.281Z,97817.50
2022-08-05T23:34:24.500Z,97831.19
2022-08-05T23:37:26.697Z,97827.53
2022-08-05T23:40:35.845Z,97821.41
2022-08-05T23:44:04.665Z,97823.13
2022-08-05T23:47:02.634Z,97824.28
2022-08-05T23:50:17.119Z,97816.84
2022-08-05T23:53:22.920Z,97823.13
2022-08-05T23:56:27.507Z,97822.16
